createdAt,value
2018-09-11T00:00:42.669Z,52.86
2018-09-11T00:03:10.475Z,52.30
2018-09-11T00:05:38.347Z,52.27
2018-09-11T00:08:06.244Z,55.05
2018-09-11T00:10:34.045Z,58.14
2018-09-11T00:13:01.920Z,60.31
2018-09-11T00:15:29.752Z,63.17
2018-09-11T00:17:57.631Z,58.12
2018-09-11T00:20:25.590Z,56.12
2018-09-11T00:22:53.463Z,60.48
2018-09-11T00:25:21.325Z,59.00
2018-09-11T00:27:49.235Z,59.45
2018-09-11T00:30:17.059Z,58.27
2018-09-11T00:32:44.915Z,56.55
2018-09-11T00:35:12.747Z,55.80
2018-09-11T00:37:40.591Z,60.80
2018-09-11T00:40:08.559Z,63.60
2018-09-11T00:42:36.392Z,57.67
2018-09-11T00:45:04.747Z,62.01
2018-09-11T00:47:32.618Z,61.58
2018-09-11T00:50:00.409Z,58.14
2018-09-11T00:52:28.355Z,64.46
2018-09-11T00:54:56.254Z,60.42
2018-09-11T00:57:24.096Z,59.61
2018-09-11T00:59:51.995Z,59.01
2018-09-11T01:02:19.801Z,65.40
2018-09-11T01:04:47.687Z,59.24
2018-09-11T01:07:15.534Z,62.39
2018-09-11T01:09:43.373Z,59.92
2018-09-11T01:12:11.201Z,66.23
2018-09-11T01:14:39.210Z,60.88
2018-09-11T01:17:07.039Z,59.06
2018-09-11T01:19:34.944Z,59.08
2018-09-11T01:22:02.800Z,58.60
2018-09-11T01:24:30.634Z,58.29
2018-09-11T01:26:58.541Z,58.12
2018-09-11T01:29:26.379Z,58.26
2018-09-11T01:31:54.139Z,59.65
2018-09-11T01:34:21.971Z,58.81
2018-09-11T01:36:49.839Z,58.67
2018-09-11T01:39:17.731Z,59.53
2018-09-11T01:41:45.661Z,59.80
2018-09-11T01:44:13.532Z,60.61
2018-09-11T01:46:41.393Z,60.41
2018-09-11T01:49:09.240Z,60.22
2018-09-11T01:51:37.011Z,60.56
2018-09-11T01:54:05.120Z,60.80
2018-09-11T01:56:32.915Z,61.23
2018-09-11T01:59:00.721Z,62.30
2018-09-11T02:01:28.551Z,65.17
2018-09-11T02:03:56.427Z,65.92
2018-09-11T02:06:24.239Z,73.19
2018-09-11T02:08:52.199Z,69.13
2018-09-11T02:11:20.008Z,68.97
2018-09-11T02:13:47.828Z,71.08
2018-09-11T02:16:15.688Z,71.85
2018-09-11T02:18:43.540Z,66.06
2018-09-11T02:21:11.335Z,70.22
2018-09-11T02:23:39.208Z,75.87
2018-09-11T02:26:07.067Z,68.33
2018-09-11T02:28:34.922Z,72.57
2018-09-11T02:31:02.752Z,70.05
2018-09-11T02:33:30.602Z,73.27
2018-09-11T02:35:58.415Z,73.60
2018-09-11T02:38:26.253Z,71.78
2018-09-11T02:40:54.086Z,72.64
2018-09-11T02:43:22.003Z,71.86
2018-09-11T02:45:50.324Z,69.79
2018-09-11T02:48:18.183Z,69.89
2018-09-11T02:50:46.044Z,72.12
2018-09-11T02:53:13.884Z,71.45
2018-09-11T02:55:41.736Z,72.18
2018-09-11T02:58:09.606Z,72.28
2018-09-11T03:00:37.407Z,73.83
2018-09-11T03:03:05.287Z,72.90
2018-09-11T03:05:33.159Z,72.24
2018-09-11T03:08:00.880Z,74.32
2018-09-11T03:10:28.700Z,72.37
2018-09-11T03:12:56.634Z,72.76
2018-09-11T03:15:24.488Z,77.57
2018-09-11T03:17:52.316Z,78.17
2018-09-11T03:20:20.132Z,78.34
2018-09-11T03:22:47.948Z,78.22
2018-09-11T03:25:15.796Z,78.80
2018-09-11T03:27:43.615Z,77.53
2018-09-11T03:30:11.433Z,78.22
2018-09-11T03:32:39.361Z,77.68
2018-09-11T03:35:07.279Z,74.42
2018-09-11T03:37:35.161Z,73.13
2018-09-11T03:40:03.371Z,75.00
2018-09-11T03:42:31.140Z,73.15
2018-09-11T03:44:58.919Z,71.93
2018-09-11T03:47:26.809Z,71.87
2018-09-11T03:49:54.655Z,72.27
2018-09-11T03:52:22.551Z,73.32
2018-09-11T03:54:50.340Z,72.65
2018-09-11T03:57:18.172Z,70.99
2018-09-11T03:59:45.956Z,72.42
2018-09-11T04:02:13.821Z,72.36
2018-09-11T04:04:41.651Z,68.92
2018-09-11T04:07:09.489Z,68.31
2018-09-11T04:09:37.339Z,71.02
2018-09-11T04:12:05.467Z,72.08
2018-09-11T04:14:33.267Z,69.37
2018-09-11T04:17:01.074Z,72.25
2018-09-11T04:19:28.893Z,73.58
2018-09-11T04:21:56.689Z,70.62
2018-09-11T04:24:24.456Z,74.15
2018-09-11T04:26:52.295Z,76.15
2018-09-11T04:29:20.095Z,72.04
2018-09-11T04:31:47.973Z,72.70
2018-09-11T04:34:15.792Z,73.27
2018-09-11T04:36:43.656Z,72.44
2018-09-11T04:39:11.519Z,71.24
2018-09-11T04:41:39.339Z,70.57
2018-09-11T04:44:07.264Z,70.62
2018-09-11T04:46:35.172Z,73.06
2018-09-11T04:49:02.994Z,70.88
2018-09-11T04:51:30.909Z,69.88
2018-09-11T04:53:58.791Z,74.77
2018-09-11T04:56:26.691Z,75.12
2018-09-11T04:58:55.128Z,76.66
2018-09-11T05:01:22.999Z,74.88
2018-09-11T05:03:51.072Z,74.48
2018-09-11T05:06:18.976Z,71.90
2018-09-11T05:08:47.082Z,76.87
2018-09-11T05:11:14.974Z,79.71
2018-09-11T05:13:42.865Z,75.71
2018-09-11T05:16:11.793Z,77.33
2018-09-11T05:18:40.028Z,79.48
2018-09-11T05:21:09.012Z,80.71
2018-09-11T05:23:37.209Z,78.90
2018-09-11T05:26:05.460Z,79.95
2018-09-11T05:28:36.674Z,77.42
2018-09-11T05:31:04.771Z,77.07
2018-09-11T05:33:34.290Z,79.96
2018-09-11T05:36:02.104Z,77.45
2018-09-11T05:38:30.136Z,79.34
2018-09-11T05:40:58.208Z,78.81
2018-09-11T05:43:26.215Z,75.85
2018-09-11T05:45:54.218Z,74.13
2018-09-11T05:48:22.079Z,73.39
2018-09-11T05:50:50.276Z,79.40
2018-09-11T05:53:18.640Z,81.39
2018-09-11T05:55:46.487Z,82.20
2018-09-11T05:58:14.279Z,80.66
2018-09-11T06:00:42.382Z,81.45
2018-09-11T06:03:10.312Z,76.67
2018-09-11T06:05:38.199Z,75.85
2018-09-11T06:08:06.005Z,75.65
2018-09-11T06:10:33.974Z,75.26
2018-09-11T06:13:05.299Z,74.91
2018-09-11T06:15:33.267Z,78.52
2018-09-11T06:18:01.153Z,76.01
2018-09-11T06:20:29.000Z,75.10
2018-09-11T06:22:56.831Z,75.30
2018-09-11T06:25:24.629Z,74.57
2018-09-11T06:27:52.451Z,74.34
2018-09-11T06:30:20.477Z,76.42
2018-09-11T06:32:48.374Z,76.32
2018-09-11T06:35:16.612Z,76.35
2018-09-11T06:37:44.455Z,76.18
2018-09-11T06:40:12.242Z,75.30
2018-09-11T06:42:40.023Z,74.60
2018-09-11T06:45:07.932Z,72.39
2018-09-11T06:47:35.827Z,72.21
2018-09-11T06:50:03.784Z,72.01
2018-09-11T06:52:31.566Z,72.59
2018-09-11T06:54:59.383Z,72.94
2018-09-11T06:57:27.256Z,72.46
2018-09-11T06:59:55.051Z,71.58
2018-09-11T07:02:22.878Z,71.09
2018-09-11T07:04:50.854Z,70.90
2018-09-11T07:07:18.664Z,71.07
2018-09-11T07:09:46.471Z,70.98
2018-09-11T07:12:14.264Z,70.38
2018-09-11T07:14:42.116Z,70.62
2018-09-11T07:17:09.864Z,70.27
2018-09-11T07:19:37.660Z,69.94
2018-09-11T07:22:05.808Z,69.26
2018-09-11T07:24:33.660Z,68.90
2018-09-11T07:27:01.476Z,68.79
2018-09-11T07:29:29.355Z,68.39
2018-09-11T07:31:57.181Z,67.84
2018-09-11T07:34:24.965Z,67.80
2018-09-11T07:36:52.745Z,67.53
2018-09-11T07:39:20.518Z,67.10
2018-09-11T07:41:48.343Z,66.33
2018-09-11T07:44:16.317Z,65.80
2018-09-11T07:46:44.095Z,65.71
2018-09-11T07:49:11.861Z,63.53
2018-09-11T07:51:39.743Z,64.43
2018-09-11T07:54:07.563Z,63.59
2018-09-11T07:56:35.375Z,62.45
2018-09-11T07:59:03.237Z,61.59
2018-09-11T08:01:31.111Z,61.57
2018-09-11T08:04:00.148Z,61.62
2018-09-11T08:06:27.990Z,60.90
2018-09-11T08:08:55.864Z,61.60
2018-09-11T08:11:23.744Z,61.26
2018-09-11T08:13:51.615Z,60.63
2018-09-11T08:16:19.469Z,61.45
2018-09-11T08:18:47.248Z,60.61
2018-09-11T08:21:15.064Z,59.26
2018-09-11T08:23:42.913Z,59.41
2018-09-11T08:26:10.758Z,59.55
2018-09-11T08:28:38.660Z,60.00
2018-09-11T08:31:06.533Z,58.57
2018-09-11T08:33:34.367Z,58.88
2018-09-11T08:36:02.216Z,59.59
2018-09-11T08:38:30.094Z,55.92
2018-09-11T08:40:57.931Z,56.71
2018-09-11T08:43:25.720Z,55.08
2018-09-11T08:45:53.591Z,55.50
2018-09-11T08:48:21.460Z,55.59
2018-09-11T08:50:49.293Z,56.03
2018-09-11T08:53:17.201Z,53.42
2018-09-11T08:55:45.176Z,54.49
2018-09-11T08:58:13.115Z,53.42
2018-09-11T09:00:40.896Z,52.98
2018-09-11T09:03:08.839Z,51.49
2018-09-11T09:05:36.609Z,51.82
2018-09-11T09:08:04.573Z,52.40
2018-09-11T09:10:32.443Z,50.80
2018-09-11T09:13:00.328Z,52.08
2018-09-11T09:15:28.214Z,51.76
2018-09-11T09:17:56.061Z,52.68
2018-09-11T09:20:23.923Z,49.99
2018-09-11T09:22:51.800Z,50.53
2018-09-11T09:25:19.580Z,49.49
2018-09-11T09:27:47.389Z,49.95
2018-09-11T09:30:15.321Z,48.78
2018-09-11T09:32:43.144Z,49.33
2018-09-11T09:35:10.940Z,48.64
2018-09-11T09:37:38.716Z,48.16
2018-09-11T09:40:06.595Z,47.07
2018-09-11T09:42:34.391Z,48.87
2018-09-11T09:45:02.316Z,46.93
2018-09-11T09:47:30.100Z,46.05
2018-09-11T09:49:57.968Z,47.22
2018-09-11T09:52:25.836Z,47.29
2018-09-11T09:54:53.654Z,47.08
2018-09-11T09:57:21.508Z,46.25
2018-09-11T09:59:49.348Z,45.64
2018-09-11T10:02:23.203Z,46.87
2018-09-11T10:04:51.844Z,45.59
2018-09-11T10:07:20.163Z,44.93
2018-09-11T10:09:47.972Z,44.80
2018-09-11T10:12:16.987Z,45.71
2018-09-11T10:14:44.892Z,45.46
2018-09-11T10:17:12.725Z,44.63
2018-09-11T10:19:40.680Z,45.06
2018-09-11T10:22:08.551Z,44.74
2018-09-11T10:24:36.417Z,45.19
2018-09-11T10:27:04.548Z,43.84
2018-09-11T10:29:32.467Z,44.00
2018-09-11T10:32:00.362Z,42.85
2018-09-11T10:34:28.219Z,42.79
2018-09-11T10:36:56.032Z,42.21
2018-09-11T10:39:23.858Z,39.96
2018-09-11T10:41:51.690Z,38.75
2018-09-11T10:44:19.591Z,37.64
2018-09-11T10:46:48.309Z,37.37
2018-09-11T10:49:16.178Z,36.62
2018-09-11T10:51:44.100Z,34.08
2018-09-11T10:54:11.956Z,33.38
2018-09-11T10:56:39.780Z,31.71
2018-09-11T10:59:07.540Z,32.31
2018-09-11T11:01:35.418Z,32.74
2018-09-11T11:04:03.284Z,31.55
2018-09-11T11:06:31.143Z,31.05
2018-09-11T11:08:58.964Z,29.99
2018-09-11T11:11:26.828Z,29.73
2018-09-11T11:13:54.655Z,29.07
2018-09-11T11:16:22.429Z,28.77
2018-09-11T11:18:50.323Z,28.45
2018-09-11T11:21:18.168Z,28.21
2018-09-11T11:23:46.083Z,28.52
2018-09-11T11:26:13.916Z,28.16
2018-09-11T11:28:41.775Z,27.74
2018-09-11T11:31:09.527Z,28.88
2018-09-11T11:33:37.332Z,28.44
2018-09-11T11:36:08.300Z,28.27
2018-09-11T11:38:36.211Z,29.13
2018-09-11T11:41:06.061Z,27.82
2018-09-11T11:43:33.852Z,27.15
2018-09-11T11:46:01.708Z,26.59
2018-09-11T11:48:30.336Z,27.45
2018-09-11T11:50:58.179Z,26.55
2018-09-11T11:53:26.012Z,27.39
2018-09-11T11:55:53.799Z,26.83
2018-09-11T11:58:21.616Z,26.24
2018-09-11T12:00:49.538Z,26.41
2018-09-11T12:03:17.360Z,26.89
2018-09-11T12:05:45.297Z,27.79
2018-09-11T12:08:13.124Z,26.36
2018-09-11T12:10:40.951Z,27.42
2018-09-11T12:13:08.701Z,27.13
2018-09-11T12:15:36.528Z,26.50
2018-09-11T12:18:04.360Z,27.45
2018-09-11T12:20:32.110Z,26.08
2018-09-11T12:23:00.029Z,27.20
2018-09-11T12:25:27.901Z,27.23
2018-09-11T12:27:55.647Z,27.58
2018-09-11T12:30:23.551Z,27.50
2018-09-11T12:32:51.351Z,26.71
2018-09-11T12:35:19.121Z,26.33
2018-09-11T12:37:46.972Z,26.26
2018-09-11T12:40:21.193Z,27.81
2018-09-11T12:42:49.169Z,26.75
2018-09-11T12:45:16.944Z,27.80
2018-09-11T12:47:45.165Z,27.45
2018-09-11T12:50:12.687Z,26.19
2018-09-11T12:52:40.619Z,26.36
2018-09-11T12:55:08.755Z,28.27
2018-09-11T12:57:36.667Z,26.46
2018-09-11T13:00:05.713Z,28.67
2018-09-11T13:02:33.620Z,27.27
2018-09-11T13:05:06.120Z,28.01
2018-09-11T13:07:34.165Z,29.52
2018-09-11T13:10:02.038Z,28.55
2018-09-11T13:12:29.915Z,28.67
2018-09-11T13:14:57.905Z,29.45
2018-09-11T13:17:25.700Z,29.38
2018-09-11T13:19:53.496Z,30.24
2018-09-11T13:22:21.356Z,29.17
2018-09-11T13:24:49.268Z,29.67
2018-09-11T13:27:17.404Z,30.44
2018-09-11T13:29:45.304Z,30.56
2018-09-11T13:32:13.111Z,29.47
2018-09-11T13:34:40.947Z,30.43
2018-09-11T13:37:08.789Z,30.28
2018-09-11T13:39:36.665Z,30.71
2018-09-11T13:42:04.511Z,30.93
2018-09-11T13:44:32.348Z,30.19
2018-09-11T13:47:01.379Z,29.62
2018-09-11T13:49:29.152Z,30.72
2018-09-11T13:51:56.943Z,30.72
2018-09-11T13:54:24.701Z,30.92
2018-09-11T13:56:52.568Z,30.48
2018-09-11T13:59:20.448Z,29.79
2018-09-11T14:01:48.349Z,29.66
2018-09-11T14:04:16.201Z,31.53
2018-09-11T14:06:43.998Z,30.16
2018-09-11T14:09:14.881Z,31.44
2018-09-11T14:11:43.867Z,30.28
2018-09-11T14:14:11.689Z,30.13
2018-09-11T14:16:40.592Z,30.07
2018-09-11T14:19:09.051Z,30.99
2018-09-11T14:21:36.948Z,30.16
2018-09-11T14:24:04.892Z,29.95
2018-09-11T14:26:32.768Z,30.60
2018-09-11T14:29:00.907Z,30.70
2018-09-11T14:31:28.751Z,29.67
2018-09-11T14:33:56.528Z,29.92
2018-09-11T14:36:25.403Z,30.10
2018-09-11T14:38:53.280Z,30.04
2018-09-11T14:41:23.579Z,30.62
2018-09-11T14:43:51.482Z,30.85
2018-09-11T14:46:19.377Z,29.89
2018-09-11T14:48:47.510Z,30.92
2018-09-11T14:51:15.463Z,30.47
2018-09-11T14:53:43.214Z,31.88
2018-09-11T14:56:11.041Z,31.67
2018-09-11T14:58:38.948Z,30.88
2018-09-11T15:01:06.895Z,30.68
2018-09-11T15:03:34.713Z,31.88
2018-09-11T15:06:02.539Z,30.21
2018-09-11T15:08:30.412Z,30.12
2018-09-11T15:11:01.699Z,30.17
2018-09-11T15:13:29.595Z,31.47
2018-09-11T15:15:57.431Z,30.77
2018-09-11T15:18:25.257Z,29.70
2018-09-11T15:20:53.142Z,31.33
2018-09-11T15:23:20.975Z,30.07
2018-09-11T15:25:48.757Z,31.26
2018-09-11T15:28:16.595Z,32.21
2018-09-11T15:30:44.519Z,30.71
2018-09-11T15:33:12.604Z,32.27
2018-09-11T15:35:40.601Z,30.57
2018-09-11T15:38:08.729Z,30.91
2018-09-11T15:40:36.581Z,30.17
2018-09-11T15:43:04.452Z,31.25
2018-09-11T15:45:32.203Z,30.37
2018-09-11T15:48:00.039Z,31.09
2018-09-11T15:50:27.943Z,31.28
2018-09-11T15:52:58.107Z,29.17
2018-09-11T15:55:25.897Z,28.77
2018-09-11T15:57:53.768Z,30.26
2018-09-11T16:00:21.539Z,29.06
2018-09-11T16:02:49.359Z,30.02
2018-09-11T16:05:17.224Z,30.36
2018-09-11T16:07:45.135Z,29.19
2018-09-11T16:10:13.032Z,30.50
2018-09-11T16:12:40.834Z,30.13
2018-09-11T16:15:08.788Z,30.67
2018-09-11T16:17:36.563Z,29.35
2018-09-11T16:20:05.634Z,30.91
2018-09-11T16:22:33.571Z,30.00
2018-09-11T16:25:01.327Z,30.16
2018-09-11T16:27:29.176Z,29.79
2018-09-11T16:29:57.121Z,30.16
2018-09-11T16:32:24.900Z,29.00
2018-09-11T16:34:52.752Z,28.94
2018-09-11T16:37:20.616Z,29.51
2018-09-11T16:39:48.494Z,29.57
2018-09-11T16:42:16.273Z,29.21
2018-09-11T16:44:44.076Z,29.36
2018-09-11T16:47:11.917Z,30.69
2018-09-11T16:49:39.727Z,30.05
2018-09-11T16:52:07.563Z,29.80
2018-09-11T16:54:35.436Z,30.03
2018-09-11T16:57:03.244Z,29.83
2018-09-11T16:59:31.076Z,30.22
2018-09-11T17:01:58.943Z,30.43
2018-09-11T17:04:26.886Z,30.04
2018-09-11T17:06:54.697Z,30.83
2018-09-11T17:09:22.518Z,30.79
2018-09-11T17:11:50.385Z,30.39
2018-09-11T17:14:18.272Z,31.57
2018-09-11T17:16:46.116Z,31.18
2018-09-11T17:19:17.154Z,31.54
2018-09-11T17:21:45.080Z,31.71
2018-09-11T17:24:12.829Z,31.56
2018-09-11T17:26:40.610Z,31.23
2018-09-11T17:29:08.435Z,31.52
2018-09-11T17:31:36.240Z,31.54
2018-09-11T17:34:04.098Z,31.48
2018-09-11T17:36:31.981Z,31.62
2018-09-11T17:38:59.807Z,32.76
2018-09-11T17:41:27.643Z,32.29
2018-09-11T17:43:55.472Z,31.26
2018-09-11T17:46:23.359Z,31.66
2018-09-11T17:48:51.300Z,32.26
2018-09-11T17:51:19.052Z,32.30
2018-09-11T17:53:46.933Z,31.73
2018-09-11T17:56:14.772Z,33.32
2018-09-11T17:58:42.530Z,32.64
2018-09-11T18:01:10.359Z,33.21
2018-09-11T18:03:38.231Z,33.29
2018-09-11T18:06:06.230Z,33.21
2018-09-11T18:08:34.063Z,33.84
2018-09-11T18:11:01.983Z,33.51
2018-09-11T18:13:29.780Z,34.24
2018-09-11T18:15:57.624Z,34.01
2018-09-11T18:18:25.500Z,33.69
2018-09-11T18:20:53.307Z,33.33
2018-09-11T18:23:21.204Z,34.57
2018-09-11T18:25:49.235Z,34.13
2018-09-11T18:28:17.059Z,34.21
2018-09-11T18:30:44.888Z,34.14
2018-09-11T18:33:12.931Z,34.50
2018-09-11T18:35:40.808Z,35.36
2018-09-11T18:38:08.702Z,35.21
2018-09-11T18:40:36.571Z,34.59
2018-09-11T18:43:04.434Z,35.07
2018-09-11T18:45:32.328Z,35.02
2018-09-11T18:48:00.160Z,35.86
2018-09-11T18:50:28.012Z,35.25
2018-09-11T18:52:56.405Z,35.73
2018-09-11T18:55:24.355Z,35.61
2018-09-11T18:57:53.543Z,35.87
2018-09-11T19:00:26.919Z,36.00
2018-09-11T19:02:54.867Z,36.20
2018-09-11T19:05:23.873Z,35.94
2018-09-11T19:07:51.895Z,35.92
2018-09-11T19:10:20.255Z,36.30
2018-09-11T19:12:48.042Z,36.61
2018-09-11T19:15:22.295Z,37.12
2018-09-11T19:17:57.280Z,37.11
2018-09-11T19:20:33.747Z,36.75
2018-09-11T19:23:06.398Z,36.95
2018-09-11T19:25:34.307Z,36.69
2018-09-11T19:28:02.606Z,36.84
2018-09-11T19:30:37.058Z,36.80
2018-09-11T19:33:06.013Z,36.70
2018-09-11T19:35:35.081Z,37.16
2018-09-11T19:38:03.253Z,37.08
2018-09-11T19:40:34.948Z,37.61
2018-09-11T19:43:02.841Z,37.40
2018-09-11T19:45:33.190Z,38.27
2018-09-11T19:48:01.135Z,37.07
2018-09-11T19:50:29.194Z,37.96
2018-09-11T19:52:57.031Z,37.35
2018-09-11T19:55:24.863Z,37.91
2018-09-11T19:57:54.050Z,37.89
2018-09-11T20:00:24.943Z,38.44
2018-09-11T20:02:54.106Z,38.47
2018-09-11T20:05:28.152Z,39.57
2018-09-11T20:08:02.948Z,39.96
2018-09-11T20:10:41.301Z,43.72
2018-09-11T20:13:09.326Z,43.83
2018-09-11T20:15:37.672Z,43.83
2018-09-11T20:18:07.939Z,44.67
2018-09-11T20:20:39.650Z,43.93
2018-09-11T20:23:07.609Z,43.67
2018-09-11T20:25:35.451Z,44.05
2018-09-11T20:28:03.300Z,44.66
2018-09-11T20:30:31.132Z,44.52
2018-09-11T20:32:58.940Z,44.57
2018-09-11T20:35:26.801Z,43.62
2018-09-11T20:37:54.693Z,44.51
2018-09-11T20:40:22.571Z,44.00
2018-09-11T20:42:50.386Z,44.69
2018-09-11T20:45:18.217Z,45.06
2018-09-11T20:47:46.039Z,45.74
2018-09-11T20:50:13.902Z,47.14
2018-09-11T20:52:46.328Z,46.60
2018-09-11T20:55:14.219Z,47.53
2018-09-11T20:57:42.055Z,49.15
2018-09-11T21:00:09.988Z,51.63
2018-09-11T21:02:37.817Z,50.77
2018-09-11T21:05:05.667Z,50.75
2018-09-11T21:07:33.486Z,49.99
2018-09-11T21:10:01.285Z,51.66
2018-09-11T21:12:29.063Z,51.26
2018-09-11T21:14:56.918Z,50.24
2018-09-11T21:17:24.807Z,51.15
2018-09-11T21:19:52.622Z,52.29
2018-09-11T21:22:20.479Z,52.97
2018-09-11T21:24:48.231Z,52.49
2018-09-11T21:27:16.071Z,51.92
2018-09-11T21:29:43.848Z,53.22
2018-09-11T21:32:11.629Z,52.50
2018-09-11T21:34:42.650Z,51.47
2018-09-11T21:37:10.476Z,52.86
2018-09-11T21:39:38.264Z,53.64
2018-09-11T21:42:06.460Z,54.81
2018-09-11T21:44:34.243Z,54.15
2018-09-11T21:47:02.087Z,55.77
2018-09-11T21:49:29.923Z,56.59
2018-09-11T21:51:57.907Z,55.85
2018-09-11T21:54:25.763Z,57.65
2018-09-11T21:56:53.653Z,57.68
2018-09-11T21:59:21.500Z,55.64
2018-09-11T22:01:51.724Z,56.41
2018-09-11T22:04:20.555Z,57.76
2018-09-11T22:06:48.424Z,57.06
2018-09-11T22:09:16.292Z,58.52
2018-09-11T22:11:44.093Z,57.85
2018-09-11T22:14:11.967Z,57.81
2018-09-11T22:16:39.774Z,58.52
2018-09-11T22:19:07.888Z,59.05
2018-09-11T22:21:36.353Z,58.21
2018-09-11T22:24:04.403Z,59.41
2018-09-11T22:26:32.600Z,58.32
2018-09-11T22:29:00.468Z,58.72
2018-09-11T22:31:28.589Z,60.67
2018-09-11T22:33:56.535Z,58.07
2018-09-11T22:36:24.787Z,60.14
2018-09-11T22:38:52.606Z,60.35
2018-09-11T22:41:20.532Z,58.18
2018-09-11T22:43:48.336Z,59.10
2018-09-11T22:46:16.272Z,60.11
2018-09-11T22:48:44.097Z,60.90
2018-09-11T22:51:11.908Z,60.33
2018-09-11T22:53:39.820Z,60.03
2018-09-11T22:56:07.699Z,58.54
2018-09-11T22:58:35.476Z,61.03
2018-09-11T23:01:03.337Z,58.55
2018-09-11T23:03:31.304Z,58.59
2018-09-11T23:05:59.290Z,60.84
2018-09-11T23:08:27.127Z,56.69
2018-09-11T23:10:54.937Z,59.54
2018-09-11T23:13:22.896Z,61.13
2018-09-11T23:15:50.755Z,62.17
2018-09-11T23:18:18.632Z,60.96
2018-09-11T23:20:48.265Z,59.66
2018-09-11T23:23:16.015Z,59.93
2018-09-11T23:25:47.319Z,62.38
2018-09-11T23:28:15.143Z,59.54
2018-09-11T23:30:43.088Z,59.79
2018-09-11T23:33:10.916Z,60.20
2018-09-11T23:35:38.798Z,62.36
2018-09-11T23:38:06.697Z,61.91
2018-09-11T23:40:34.524Z,61.26
2018-09-11T23:43:02.418Z,58.63
2018-09-11T23:45:30.248Z,60.12
2018-09-11T23:47:58.075Z,62.31
2018-09-11T23:50:26.036Z,63.49
2018-09-11T23:52:53.933Z,60.62
2018-09-11T23:55:21.918Z,65.21
2018-09-11T23:57:50.041Z,63.63
